createdAt,value
2023-04-02T00:00:32.940Z,3.47
2023-04-02T00:03:42.422Z,3.55
2023-04-02T00:06:54.227Z,3.85
2023-04-02T00:09:57.730Z,4.13
2023-04-02T00:13:31.347Z,3.38
2023-04-02T00:16:33.467Z,3.33
2023-04-02T00:20:07.222Z,4.15
2023-04-02T00:23:15.833Z,3.08
2023-04-02T00:26:34.064Z,3.30
2023-04-02T00:29:35.922Z,3.28
2023-04-02T00:32:40.685Z,3.10
2023-04-02T00:35:43.082Z,2.97
2023-04-02T00:38:46.723Z,2.88
2023-04-02T00:41:54.860Z,3.10
2023-04-02T00:44:58.963Z,2.58
2023-04-02T00:48:13.701Z,3.38
2023-04-02T00:51:46.804Z,2.70
2023-04-02T00:54:52.889Z,2.63
2023-04-02T00:57:57.866Z,3.15
2023-04-02T01:01:01.951Z,2.75
2023-04-02T01:04:05.728Z,2.60
2023-04-02T01:07:11.340Z,2.50
2023-04-02T01:10:26.476Z,2.22
2023-04-02T01:13:38.077Z,2.40
2023-04-02T01:17:34.153Z,2.10
2023-04-02T01:20:47.912Z,2.58
2023-04-02T01:24:08.389Z,2.60
2023-04-02T01:27:21.962Z,2.30
2023-04-02T01:30:24.304Z,2.15
2023-04-02T01:33:31.558Z,2.33
2023-04-02T01:36:52.217Z,2.10
2023-04-02T01:40:12.970Z,4.03
2023-04-02T01:43:47.496Z,2.50
2023-04-02T01:46:50.538Z,2.78
2023-04-02T01:49:57.315Z,2.42
2023-04-02T01:53:08.561Z,2.50
2023-04-02T01:56:11.457Z,2.47
2023-04-02T01:59:16.752Z,2.25
2023-04-02T02:02:21.847Z,2.40
2023-04-02T02:05:24.265Z,4.28
2023-04-02T02:08:59.694Z,2.13
2023-04-02T02:12:03.419Z,2.47
2023-04-02T02:15:19.289Z,1.83
2023-04-02T02:18:23.617Z,2.10
2023-04-02T02:21:47.557Z,2.00
2023-04-02T02:24:50.679Z,1.65
2023-04-02T02:28:16.279Z,1.80
2023-04-02T02:31:37.405Z,1.77
2023-04-02T02:35:19.617Z,1.75
2023-04-02T02:38:39.403Z,1.95
2023-04-02T02:41:56.978Z,1.98
2023-04-02T02:45:05.133Z,2.13
2023-04-02T02:48:16.455Z,1.67
2023-04-02T02:51:27.740Z,1.85
2023-04-02T02:57:40.565Z,1.65
2023-04-02T03:00:43.421Z,1.73
2023-04-02T03:03:49.349Z,1.77
2023-04-02T03:06:53.665Z,1.60
2023-04-02T03:10:36.490Z,1.73
2023-04-02T03:13:40.354Z,1.27
2023-04-02T03:16:47.345Z,1.77
2023-04-02T03:20:12.899Z,1.85
2023-04-02T03:23:19.174Z,1.85
2023-04-02T03:26:52.726Z,1.52
2023-04-02T03:30:35.773Z,1.58
2023-04-02T03:33:42.548Z,1.60
2023-04-02T03:37:05.782Z,1.83
2023-04-02T03:40:34.102Z,2.00
2023-04-02T03:43:56.625Z,1.65
2023-04-02T03:47:04.739Z,1.40
2023-04-02T03:50:28.899Z,1.50
2023-04-02T03:53:34.035Z,1.40
2023-04-02T03:56:43.813Z,1.50
2023-04-02T04:00:05.177Z,1.80
2023-04-02T04:03:41.146Z,1.50
2023-04-02T04:06:46.527Z,1.40
2023-04-02T04:09:52.403Z,1.65
2023-04-02T04:12:57.404Z,1.60
2023-04-02T04:16:22.625Z,1.50
2023-04-02T04:19:40.801Z,1.52
2023-04-02T04:22:43.337Z,1.77
2023-04-02T04:25:59.615Z,1.10
2023-04-02T04:29:19.323Z,1.73
2023-04-02T04:32:27.695Z,1.42
2023-04-02T04:35:38.409Z,2.13
2023-04-02T04:38:55.137Z,1.63
2023-04-02T04:42:03.218Z,1.83
2023-04-02T04:45:37.836Z,1.55
2023-04-02T04:48:54.613Z,1.20
2023-04-02T04:52:07.753Z,1.40
2023-04-02T04:55:42.497Z,1.40
2023-04-02T04:59:12.926Z,1.50
2023-04-02T05:02:27.760Z,1.65
2023-04-02T05:05:33.789Z,1.88
2023-04-02T05:08:45.790Z,2.22
2023-04-02T05:11:59.939Z,2.22
2023-04-02T05:15:23.544Z,1.30
2023-04-02T05:18:38.288Z,1.10
2023-04-02T05:21:57.700Z,1.40
2023-04-02T05:25:13.276Z,1.20
2023-04-02T05:28:53.145Z,1.45
2023-04-02T05:32:09.197Z,1.50
2023-04-02T05:35:17.286Z,1.55
2023-04-02T05:38:26.692Z,1.50
2023-04-02T05:41:36.559Z,1.23
2023-04-02T05:44:49.507Z,1.13
2023-04-02T05:47:59.899Z,1.33
2023-04-02T05:51:11.608Z,1.15
2023-04-02T05:54:45.158Z,1.10
2023-04-02T05:58:13.550Z,1.20
2023-04-02T06:01:51.647Z,1.10
2023-04-02T06:05:07.403Z,1.33
2023-04-02T06:08:21.209Z,1.00
2023-04-02T06:11:32.208Z,1.00
2023-04-02T06:14:37.345Z,1.33
2023-04-02T06:17:53.294Z,1.90
2023-04-02T06:20:55.869Z,1.70
2023-04-02T06:24:02.554Z,1.20
2023-04-02T06:27:10.138Z,1.00
2023-04-02T06:30:27.225Z,1.40
2023-04-02T06:33:29.327Z,1.35
2023-04-02T06:36:32.616Z,1.30
2023-04-02T06:39:38.403Z,1.20
2023-04-02T06:42:42.437Z,1.50
2023-04-02T06:46:28.565Z,1.13
2023-04-02T06:49:34.261Z,1.20
2023-04-02T06:52:53.985Z,1.20
2023-04-02T06:56:20.328Z,1.35
2023-04-02T06:59:22.534Z,1.45
2023-04-02T07:02:37.807Z,1.45
2023-04-02T07:05:43.187Z,1.58
2023-04-02T07:08:46.065Z,1.30
2023-04-02T07:11:48.932Z,1.50
2023-04-02T07:14:53.684Z,1.38
2023-04-02T07:18:01.790Z,1.38
2023-04-02T07:21:03.838Z,1.80
2023-04-02T07:24:06.423Z,1.20
2023-04-02T07:27:14.806Z,1.17
2023-04-02T07:30:16.563Z,1.73
2023-04-02T07:33:22.188Z,2.47
2023-04-02T07:36:24.738Z,1.40
2023-04-02T07:39:26.603Z,1.48
2023-04-02T07:42:28.244Z,1.70
2023-04-02T07:45:30.156Z,1.25
2023-04-02T07:48:32.243Z,1.40
2023-04-02T07:51:33.917Z,1.00
2023-04-02T07:54:39.983Z,1.45
2023-04-02T07:57:49.414Z,1.60
2023-04-02T08:00:51.537Z,1.33
2023-04-02T08:03:57.835Z,1.42
2023-04-02T08:07:03.018Z,1.50
2023-04-02T08:10:06.060Z,1.40
2023-04-02T08:13:07.832Z,1.10
2023-04-02T08:16:10.178Z,1.80
2023-04-02T08:19:14.910Z,1.20
2023-04-02T08:22:16.896Z,1.17
2023-04-02T08:25:19.765Z,1.65
2023-04-02T08:28:22.502Z,1.38
2023-04-02T08:31:24.457Z,1.23
2023-04-02T08:34:27.538Z,1.00
2023-04-02T08:37:29.376Z,1.20
2023-04-02T08:40:41.779Z,1.30
2023-04-02T08:44:21.112Z,1.15
2023-04-02T08:47:25.962Z,1.30
2023-04-02T08:50:35.716Z,1.50
2023-04-02T08:53:42.263Z,1.35
2023-04-02T08:56:52.649Z,1.10
2023-04-02T09:00:13.814Z,1.02
2023-04-02T09:03:21.125Z,1.17
2023-04-02T09:06:23.346Z,1.10
2023-04-02T09:09:26.247Z,1.70
2023-04-02T09:12:30.936Z,1.60
2023-04-02T09:15:37.012Z,0.90
2023-04-02T09:18:40.177Z,1.13
2023-04-02T09:21:48.789Z,1.05
2023-04-02T09:24:55.585Z,1.13
2023-04-02T09:28:00.880Z,1.20
2023-04-02T09:31:30.017Z,1.15
2023-04-02T09:34:34.867Z,1.45
2023-04-02T09:37:37.443Z,1.08
2023-04-02T09:41:01.558Z,1.60
2023-04-02T09:44:30.341Z,1.40
2023-04-02T09:47:32.118Z,1.30
2023-04-02T09:50:34.799Z,1.42
2023-04-02T09:53:52.765Z,1.05
2023-04-02T09:57:01.232Z,1.15
2023-04-02T10:00:32.229Z,1.10
2023-04-02T10:03:43.704Z,1.38
2023-04-02T10:06:50.250Z,2.30
2023-04-02T10:10:02.001Z,1.20
2023-04-02T10:13:20.020Z,1.23
2023-04-02T10:16:34.039Z,1.13
2023-04-02T10:19:50.676Z,1.42
2023-04-02T10:22:52.447Z,1.50
2023-04-02T10:26:25.197Z,1.25
2023-04-02T10:30:02.530Z,1.30
2023-04-02T10:33:21.680Z,1.25
2023-04-02T10:36:30.577Z,1.60
2023-04-02T10:39:50.180Z,0.93
2023-04-02T10:43:34.643Z,1.13
2023-04-02T10:46:43.776Z,1.02
2023-04-02T10:50:04.336Z,1.60
2023-04-02T10:53:16.661Z,1.05
2023-04-02T10:56:18.662Z,1.08
2023-04-02T10:59:41.831Z,1.00
2023-04-02T11:03:13.711Z,1.15
2023-04-02T11:06:18.711Z,1.10
2023-04-02T11:09:25.419Z,1.20
2023-04-02T11:12:58.054Z,1.45
2023-04-02T11:15:59.883Z,1.08
2023-04-02T11:19:17.236Z,1.10
2023-04-02T11:22:26.071Z,1.02
2023-04-02T11:25:28.719Z,1.05
2023-04-02T11:28:34.069Z,1.10
2023-04-02T11:31:37.021Z,1.10
2023-04-02T11:34:43.771Z,1.17
2023-04-02T11:37:46.603Z,1.67
2023-04-02T11:40:59.115Z,1.25
2023-04-02T11:44:01.985Z,0.95
2023-04-02T11:47:27.339Z,1.00
2023-04-02T11:50:40.554Z,1.00
2023-04-02T11:53:43.210Z,1.48
2023-04-02T11:56:58.655Z,2.28
2023-04-02T12:00:21.028Z,1.45
2023-04-02T12:03:32.474Z,1.10
2023-04-02T12:07:12.843Z,1.00
2023-04-02T12:10:21.972Z,1.25
2023-04-02T12:13:42.095Z,1.10
2023-04-02T12:16:44.437Z,1.10
2023-04-02T12:19:49.078Z,1.17
2023-04-02T12:22:54.166Z,1.10
2023-04-02T12:26:06.627Z,0.75
2023-04-02T12:29:22.094Z,1.05
2023-04-02T12:32:31.618Z,1.00
2023-04-02T12:35:36.380Z,1.00
2023-04-02T12:38:58.316Z,1.75
2023-04-02T12:42:00.123Z,1.30
2023-04-02T12:45:03.841Z,1.40
2023-04-02T12:48:07.007Z,1.00
2023-04-02T12:51:10.783Z,2.10
2023-04-02T12:54:17.728Z,1.00
2023-04-02T12:57:26.487Z,1.20
2023-04-02T13:00:31.105Z,1.58
2023-04-02T13:03:33.883Z,1.30
2023-04-02T13:06:36.719Z,1.45
2023-04-02T13:09:46.989Z,0.85
2023-04-02T13:12:49.229Z,0.80
2023-04-02T13:16:02.876Z,1.65
2023-04-02T13:19:23.546Z,1.00
2023-04-02T13:22:34.479Z,1.40
2023-04-02T13:25:37.120Z,0.70
2023-04-02T13:28:39.096Z,1.00
2023-04-02T13:31:41.668Z,0.98
2023-04-02T13:34:43.393Z,1.13
2023-04-02T13:37:46.298Z,1.02
2023-04-02T13:40:48.377Z,0.80
2023-04-02T13:44:00.497Z,1.00
2023-04-02T13:47:02.209Z,0.95
2023-04-02T13:50:04.218Z,0.68
2023-04-02T13:53:10.636Z,1.38
2023-04-02T13:56:12.772Z,1.00
2023-04-02T13:59:14.898Z,0.80
2023-04-02T14:02:22.240Z,0.80
2023-04-02T14:05:42.737Z,0.80
2023-04-02T14:08:52.015Z,0.77
2023-04-02T14:12:03.593Z,0.52
2023-04-02T14:15:39.810Z,0.57
2023-04-02T14:18:59.864Z,0.82
2023-04-02T14:22:36.091Z,0.60
2023-04-02T14:26:11.916Z,0.88
2023-04-02T14:29:42.668Z,0.50
2023-04-02T14:36:14.591Z,0.57
2023-04-02T14:39:32.746Z,0.90
2023-04-02T14:42:58.591Z,0.68
2023-04-02T14:46:04.127Z,0.50
2023-04-02T14:49:26.926Z,0.90
2023-04-02T14:52:33.742Z,1.05
2023-04-02T14:55:52.082Z,1.10
2023-04-02T14:59:30.791Z,0.77
2023-04-02T15:02:51.511Z,0.70
2023-04-02T15:06:03.620Z,0.60
2023-04-02T15:09:13.765Z,0.70
2023-04-02T15:12:23.060Z,0.40
2023-04-02T15:15:49.425Z,0.68
2023-04-02T15:19:01.535Z,0.68
2023-04-02T15:22:27.612Z,0.60
2023-04-02T15:25:42.698Z,0.60
2023-04-02T15:28:47.821Z,0.80
2023-04-02T15:31:52.058Z,0.60
2023-04-02T15:35:33.817Z,0.60
2023-04-02T15:38:44.833Z,0.70
2023-04-02T15:45:07.597Z,0.80
2023-04-02T15:48:38.187Z,0.70
2023-04-02T15:52:17.238Z,1.50
2023-04-02T15:55:41.198Z,0.82
2023-04-02T15:59:09.669Z,1.00
2023-04-02T16:02:39.703Z,0.65
2023-04-02T16:05:58.752Z,0.80
2023-04-02T16:09:27.147Z,0.60
2023-04-02T16:12:29.756Z,1.00
2023-04-02T16:15:40.442Z,1.08
2023-04-02T16:18:59.154Z,0.80
2023-04-02T16:22:27.594Z,1.00
2023-04-02T16:25:39.011Z,0.95
2023-04-02T16:28:52.849Z,0.73
2023-04-02T16:32:32.019Z,1.20
2023-04-02T16:35:57.478Z,0.80
2023-04-02T16:39:32.680Z,1.23
2023-04-02T16:42:48.917Z,1.30
2023-04-02T16:46:08.202Z,0.88
2023-04-02T16:49:46.749Z,1.00
2023-04-02T16:53:02.865Z,1.00
2023-04-02T16:56:12.280Z,1.08
2023-04-02T16:59:22.800Z,0.63
2023-04-02T17:02:40.042Z,0.80
2023-04-02T17:06:20.430Z,0.70
2023-04-02T17:09:40.766Z,0.70
2023-04-02T17:12:47.155Z,0.85
2023-04-02T17:15:53.986Z,1.05
2023-04-02T17:18:58.631Z,1.33
2023-04-02T17:22:03.262Z,0.95
2023-04-02T17:25:07.844Z,1.40
2023-04-02T17:28:15.816Z,1.02
2023-04-02T17:31:23.995Z,1.00
2023-04-02T17:34:25.912Z,0.90
2023-04-02T17:37:56.062Z,1.05
2023-04-02T17:41:37.093Z,1.70
2023-04-02T17:48:20.630Z,1.20
2023-04-02T17:51:48.662Z,1.27
2023-04-02T17:55:04.797Z,1.75
2023-04-02T17:58:16.502Z,1.23
2023-04-02T18:01:28.477Z,1.13
2023-04-02T18:04:49.420Z,1.17
2023-04-02T18:11:20.704Z,1.42
2023-04-02T18:15:02.652Z,1.55
2023-04-02T18:18:33.239Z,1.08
2023-04-02T18:22:06.832Z,1.75
2023-04-02T18:25:19.328Z,1.83
2023-04-02T18:28:48.821Z,1.52
2023-04-02T18:32:03.097Z,1.48
2023-04-02T18:35:41.715Z,1.30
2023-04-02T18:38:52.750Z,2.67
2023-04-02T18:45:20.485Z,1.88
2023-04-02T18:48:33.105Z,1.30
2023-04-02T18:51:38.802Z,1.30
2023-04-02T18:54:48.725Z,1.40
2023-04-02T18:57:57.360Z,1.10
2023-04-02T19:01:03.808Z,1.27
2023-04-02T19:04:20.485Z,1.17
2023-04-02T19:07:22.962Z,1.77
2023-04-02T19:10:35.294Z,1.20
2023-04-02T19:13:37.521Z,0.98
2023-04-02T19:16:59.864Z,1.25
2023-04-02T19:20:10.895Z,1.20
2023-04-02T19:23:32.065Z,1.20
2023-04-02T19:30:04.368Z,1.30
2023-04-02T19:33:31.597Z,1.45
2023-04-02T19:36:46.724Z,1.33
2023-04-02T19:40:22.347Z,0.90
2023-04-02T19:43:27.001Z,1.30
2023-04-02T19:46:28.882Z,1.10
2023-04-02T19:49:34.679Z,1.20
2023-04-02T19:52:38.486Z,1.27
2023-04-02T19:55:41.750Z,0.90
2023-04-02T19:58:44.400Z,1.35
2023-04-02T20:01:47.097Z,1.48
2023-04-02T20:04:48.819Z,2.00
2023-04-02T20:07:50.670Z,1.17
2023-04-02T20:10:52.395Z,1.50
2023-04-02T20:13:54.747Z,1.70
2023-04-02T20:16:56.801Z,1.55
2023-04-02T20:19:58.544Z,1.50
2023-04-02T20:23:00.765Z,1.50
2023-04-02T20:26:04.403Z,1.42
2023-04-02T20:29:06.597Z,1.50
2023-04-02T20:32:09.978Z,0.90
2023-04-02T20:35:11.716Z,1.10
2023-04-02T20:38:13.668Z,1.45
2023-04-02T20:41:16.164Z,1.17
2023-04-02T20:44:17.906Z,1.33
2023-04-02T20:47:22.204Z,0.80
2023-04-02T20:50:24.825Z,1.15
2023-04-02T20:53:29.124Z,1.20
2023-04-02T20:56:31.190Z,1.05
2023-04-02T20:59:32.902Z,1.35
2023-04-02T21:02:36.019Z,1.17
2023-04-02T21:05:46.678Z,1.00
2023-04-02T21:08:49.984Z,0.77
2023-04-02T21:11:51.697Z,1.10
2023-04-02T21:14:58.121Z,1.20
2023-04-02T21:18:01.415Z,1.17
2023-04-02T21:21:05.547Z,0.90
2023-04-02T21:24:09.284Z,0.93
2023-04-02T21:27:11.414Z,1.33
2023-04-02T21:30:13.489Z,1.00
2023-04-02T21:33:17.952Z,1.08
2023-04-02T21:36:23.459Z,1.10
2023-04-02T21:39:25.981Z,1.13
2023-04-02T21:42:27.977Z,1.35
2023-04-02T21:45:29.858Z,0.88
2023-04-02T21:48:31.881Z,1.20
2023-04-02T21:51:35.672Z,1.15
2023-04-02T21:54:37.662Z,1.50
2023-04-02T21:57:39.730Z,1.23
2023-04-02T22:00:41.710Z,1.23
2023-04-02T22:03:43.926Z,1.50
2023-04-02T22:06:46.700Z,1.60
2023-04-02T22:09:48.682Z,1.50
2023-04-02T22:12:50.465Z,2.00
2023-04-02T22:15:52.384Z,2.50
2023-04-02T22:18:56.324Z,2.50
2023-04-02T22:22:01.580Z,2.40
2023-04-02T22:25:03.913Z,2.13
2023-04-02T22:28:06.147Z,1.75
2023-04-02T22:31:12.714Z,1.65
2023-04-02T22:34:14.868Z,1.63
2023-04-02T22:37:16.692Z,1.40
2023-04-02T22:40:18.412Z,1.00
2023-04-02T22:43:20.240Z,1.25
2023-04-02T22:46:22.890Z,1.10
2023-04-02T22:49:24.806Z,0.95
2023-04-02T22:52:26.515Z,1.00
2023-04-02T22:55:28.570Z,1.10
2023-04-02T22:58:30.765Z,1.02
2023-04-02T23:01:35.964Z,1.20
2023-04-02T23:04:37.878Z,0.93
2023-04-02T23:07:39.736Z,1.38
2023-04-02T23:10:41.671Z,1.05
2023-04-02T23:13:44.547Z,1.25
2023-04-02T23:16:46.551Z,1.52
2023-04-02T23:19:48.443Z,1.17
2023-04-02T23:22:50.376Z,1.08
2023-04-02T23:26:08.160Z,1.00
2023-04-02T23:29:11.737Z,1.92
2023-04-02T23:32:13.451Z,1.13
2023-04-02T23:35:15.838Z,1.65
2023-04-02T23:38:17.656Z,1.02
2023-04-02T23:41:19.361Z,1.33
2023-04-02T23:44:21.164Z,1.30
2023-04-02T23:47:23.142Z,1.10
2023-04-02T23:50:25.199Z,1.05
2023-04-02T23:53:27.123Z,1.10
2023-04-02T23:56:28.885Z,1.70
2023-04-02T23:59:30.929Z,1.20
